createdAt,value
2023-05-05T00:00:52.347Z,13.16
2023-05-05T00:01:52.341Z,13.16
2023-05-05T00:02:52.350Z,13.14
2023-05-05T00:03:52.378Z,13.13
2023-05-05T00:04:52.274Z,13.14
2023-05-05T00:05:52.319Z,13.14
2023-05-05T00:06:52.263Z,13.13
2023-05-05T00:07:52.255Z,13.13
2023-05-05T00:08:52.235Z,13.13
2023-05-05T00:09:52.227Z,13.13
2023-05-05T00:10:52.255Z,13.12
2023-05-05T00:11:52.205Z,13.13
2023-05-05T00:12:52.242Z,13.10
2023-05-05T00:13:52.194Z,13.12
2023-05-05T00:14:52.232Z,13.10
2023-05-05T00:15:52.201Z,13.13
2023-05-05T00:16:52.185Z,13.13
2023-05-05T00:17:52.228Z,13.13
2023-05-05T00:18:52.136Z,13.13
2023-05-05T00:19:52.115Z,13.14
2023-05-05T00:20:52.362Z,13.13
2023-05-05T00:21:52.122Z,13.12
2023-05-05T00:22:52.082Z,13.12
2023-05-05T00:23:52.085Z,13.09
2023-05-05T00:24:52.102Z,13.09
2023-05-05T00:25:52.057Z,13.09
2023-05-05T00:26:52.052Z,13.06
2023-05-05T00:27:52.069Z,13.06
2023-05-05T00:28:52.047Z,13.01
2023-05-05T00:29:52.036Z,13.01
2023-05-05T00:30:52.060Z,13.01
2023-05-05T00:31:52.016Z,12.99
2023-05-05T00:32:52.016Z,12.99
2023-05-05T00:33:52.017Z,12.99
2023-05-05T00:34:51.961Z,12.99
2023-05-05T00:35:51.966Z,12.99
2023-05-05T00:36:51.990Z,12.98
2023-05-05T00:37:51.940Z,12.96
2023-05-05T00:38:51.969Z,12.96
2023-05-05T00:39:51.914Z,12.95
2023-05-05T00:40:51.938Z,12.94
2023-05-05T00:41:51.897Z,12.92
2023-05-05T00:42:51.889Z,12.92
2023-05-05T00:43:51.888Z,12.91
2023-05-05T00:44:51.892Z,12.88
2023-05-05T00:45:51.849Z,12.88
2023-05-05T00:46:51.864Z,12.88
2023-05-05T00:47:51.874Z,12.84
2023-05-05T00:48:51.860Z,12.77
2023-05-05T00:49:51.840Z,12.77
2023-05-05T00:50:51.813Z,12.74
2023-05-05T00:51:51.799Z,12.74
2023-05-05T00:52:51.796Z,12.74
2023-05-05T00:53:51.787Z,12.74
2023-05-05T00:54:51.751Z,12.74
2023-05-05T00:55:51.771Z,12.74
2023-05-05T00:56:51.746Z,12.74
2023-05-05T00:57:51.736Z,12.74
2023-05-05T00:58:51.713Z,12.76
2023-05-05T00:59:51.711Z,12.77
2023-05-05T01:00:51.703Z,12.77
2023-05-05T01:01:51.743Z,12.79
2023-05-05T01:02:51.717Z,12.77
2023-05-05T01:03:51.738Z,12.77
2023-05-05T01:04:51.656Z,12.76
2023-05-05T01:05:51.657Z,12.76
2023-05-05T01:06:51.643Z,12.71
2023-05-05T01:07:51.619Z,12.71
2023-05-05T01:08:51.603Z,12.73
2023-05-05T01:10:00.898Z,12.71
2023-05-05T01:10:51.607Z,12.71
2023-05-05T01:11:51.609Z,12.70
2023-05-05T01:12:51.603Z,12.70
2023-05-05T01:13:51.557Z,12.69
2023-05-05T01:14:51.550Z,12.69
2023-05-05T01:15:51.570Z,12.66
2023-05-05T01:16:51.528Z,12.66
2023-05-05T01:17:51.591Z,12.66
2023-05-05T01:18:51.503Z,12.66
2023-05-05T01:19:51.485Z,12.63
2023-05-05T01:20:51.565Z,12.62
2023-05-05T01:21:51.482Z,12.59
2023-05-05T01:22:52.329Z,12.58
2023-05-05T01:23:51.449Z,12.56
2023-05-05T01:24:51.581Z,12.56
2023-05-05T01:25:51.761Z,12.54
2023-05-05T01:26:51.436Z,12.55
2023-05-05T01:27:51.406Z,12.51
2023-05-05T01:28:51.406Z,12.54
2023-05-05T01:29:51.414Z,12.52
2023-05-05T01:30:51.373Z,12.52
2023-05-05T01:31:51.454Z,12.51
2023-05-05T01:32:51.390Z,12.54
2023-05-05T01:33:51.347Z,12.51
2023-05-05T01:34:51.399Z,12.51
2023-05-05T01:35:51.315Z,12.52
2023-05-05T01:36:51.308Z,12.49
2023-05-05T01:37:51.443Z,12.49
2023-05-05T01:38:51.310Z,12.48
2023-05-05T01:39:51.307Z,12.48
2023-05-05T01:40:51.276Z,12.44
2023-05-05T01:41:51.270Z,12.46
2023-05-05T01:42:51.254Z,12.46
2023-05-05T01:43:51.270Z,12.43
2023-05-05T01:44:51.229Z,12.44
2023-05-05T01:45:51.269Z,12.43
2023-05-05T01:46:51.217Z,12.44
2023-05-05T01:47:51.227Z,12.43
2023-05-05T01:48:51.199Z,12.43
2023-05-05T01:49:51.182Z,12.38
2023-05-05T01:50:51.171Z,12.40
2023-05-05T01:51:51.158Z,12.37
2023-05-05T01:52:51.194Z,12.36
2023-05-05T01:53:51.121Z,12.37
2023-05-05T01:54:51.147Z,12.33
2023-05-05T01:55:51.139Z,12.26
2023-05-05T01:56:51.098Z,12.30
2023-05-05T01:57:51.092Z,12.29
2023-05-05T01:58:51.114Z,12.26
2023-05-05T01:59:51.098Z,12.23
2023-05-05T02:00:51.115Z,12.25
2023-05-05T02:01:51.054Z,12.23
2023-05-05T02:02:51.175Z,12.22
2023-05-05T02:03:51.011Z,12.23
2023-05-05T02:04:51.142Z,12.23
2023-05-05T02:05:50.998Z,12.19
2023-05-05T02:06:51.013Z,12.19
2023-05-05T02:07:50.987Z,12.21
2023-05-05T02:08:50.970Z,12.16
2023-05-05T02:09:50.961Z,12.16
2023-05-05T02:10:51.060Z,12.16
2023-05-05T02:11:50.961Z,12.13
2023-05-05T02:12:50.988Z,12.15
2023-05-05T02:13:50.952Z,12.13
2023-05-05T02:14:50.917Z,12.12
2023-05-05T02:15:51.027Z,12.12
2023-05-05T02:16:50.888Z,12.11
2023-05-05T02:17:50.901Z,12.08
2023-05-05T02:18:50.871Z,12.08
2023-05-05T02:19:50.862Z,12.08
2023-05-05T02:20:50.864Z,12.07
2023-05-05T02:21:50.859Z,12.07
2023-05-05T02:22:50.891Z,12.07
2023-05-05T02:23:50.805Z,12.04
2023-05-05T02:24:50.811Z,12.03
2023-05-05T02:25:50.804Z,12.01
2023-05-05T02:26:50.788Z,11.98
2023-05-05T02:27:50.778Z,11.97
2023-05-05T02:28:50.759Z,12.00
2023-05-05T02:29:50.770Z,11.98
2023-05-05T02:30:50.773Z,11.97
2023-05-05T02:31:50.843Z,11.97
2023-05-05T02:32:50.774Z,11.98
2023-05-05T02:33:50.709Z,11.97
2023-05-05T02:34:50.743Z,11.97
2023-05-05T02:35:50.689Z,11.98
2023-05-05T02:36:50.678Z,11.97
2023-05-05T02:37:50.661Z,12.01
2023-05-05T02:38:50.672Z,12.01
2023-05-05T02:39:50.677Z,11.94
2023-05-05T02:40:50.629Z,11.93
2023-05-05T02:41:50.613Z,11.90
2023-05-05T02:42:50.665Z,11.93
2023-05-05T02:43:50.614Z,11.90
2023-05-05T02:44:50.599Z,11.90
2023-05-05T02:45:50.645Z,11.87
2023-05-05T02:46:50.611Z,11.85
2023-05-05T02:47:50.571Z,11.88
2023-05-05T02:48:50.546Z,11.87
2023-05-05T02:49:50.528Z,11.90
2023-05-05T02:50:50.532Z,11.87
2023-05-05T02:51:50.509Z,11.90
2023-05-05T02:52:50.561Z,11.93
2023-05-05T02:53:50.494Z,11.93
2023-05-05T02:54:50.478Z,11.93
2023-05-05T02:55:50.471Z,11.88
2023-05-05T02:56:50.422Z,11.88
2023-05-05T02:57:50.398Z,11.93
2023-05-05T02:58:50.577Z,11.88
2023-05-05T02:59:50.455Z,11.84
2023-05-05T03:00:50.445Z,11.84
2023-05-05T03:01:50.486Z,11.84
2023-05-05T03:02:50.492Z,11.84
2023-05-05T03:03:50.441Z,11.81
2023-05-05T03:04:50.370Z,11.81
2023-05-05T03:05:50.368Z,11.81
2023-05-05T03:06:50.317Z,11.77
2023-05-05T03:07:50.301Z,11.77
2023-05-05T03:08:50.295Z,11.74
2023-05-05T03:09:50.275Z,11.74
2023-05-05T03:10:50.249Z,11.77
2023-05-05T03:11:50.243Z,11.77
2023-05-05T03:12:50.277Z,11.79
2023-05-05T03:13:50.218Z,11.77
2023-05-05T03:14:50.215Z,11.79
2023-05-05T03:15:50.203Z,11.82
2023-05-05T03:16:50.216Z,11.82
2023-05-05T03:17:50.225Z,11.81
2023-05-05T03:18:50.175Z,11.81
2023-05-05T03:19:50.181Z,11.77
2023-05-05T03:20:50.146Z,11.77
2023-05-05T03:21:50.160Z,11.75
2023-05-05T03:22:50.134Z,11.74
2023-05-05T03:23:50.113Z,11.74
2023-05-05T03:24:50.110Z,11.70
2023-05-05T03:25:50.120Z,11.72
2023-05-05T03:26:50.110Z,11.72
2023-05-05T03:27:50.088Z,11.72
2023-05-05T03:28:50.072Z,11.70
2023-05-05T03:29:50.046Z,11.67
2023-05-05T03:30:50.049Z,11.67
2023-05-05T03:31:50.145Z,11.63
2023-05-05T03:32:50.069Z,11.59
2023-05-05T03:33:50.020Z,11.57
2023-05-05T03:34:50.025Z,11.56
2023-05-05T03:35:50.017Z,11.56
2023-05-05T03:36:49.975Z,11.51
2023-05-05T03:37:49.983Z,11.46
2023-05-05T03:38:49.953Z,11.45
2023-05-05T03:39:49.971Z,11.45
2023-05-05T03:40:49.964Z,11.44
2023-05-05T03:41:49.922Z,11.44
2023-05-05T03:42:49.977Z,11.41
2023-05-05T03:43:49.938Z,11.39
2023-05-05T03:44:49.923Z,11.38
2023-05-05T03:45:49.958Z,11.38
2023-05-05T03:46:49.872Z,11.38
2023-05-05T03:47:49.912Z,11.38
2023-05-05T03:48:49.849Z,11.36
2023-05-05T03:49:49.852Z,11.31
2023-05-05T03:50:49.825Z,11.31
2023-05-05T03:51:49.807Z,11.31
2023-05-05T03:52:49.806Z,11.33
2023-05-05T03:53:49.791Z,11.31
2023-05-05T03:54:49.813Z,11.30
2023-05-05T03:55:49.785Z,11.33
2023-05-05T03:56:49.780Z,11.31
2023-05-05T03:57:49.746Z,11.33
2023-05-05T03:58:49.765Z,11.31
2023-05-05T03:59:49.743Z,11.33
2023-05-05T04:00:49.750Z,11.36
2023-05-05T04:01:49.722Z,11.36
2023-05-05T04:02:49.824Z,11.35
2023-05-05T04:03:49.756Z,11.35
2023-05-05T04:04:49.693Z,11.36
2023-05-05T04:05:49.684Z,11.39
2023-05-05T04:06:49.675Z,11.38
2023-05-05T04:07:49.656Z,11.39
2023-05-05T04:08:49.655Z,11.39
2023-05-05T04:09:49.630Z,11.38
2023-05-05T04:10:49.656Z,11.33
2023-05-05T04:11:49.620Z,11.33
2023-05-05T04:12:49.728Z,11.27
2023-05-05T04:13:49.898Z,11.26
2023-05-05T04:14:49.583Z,11.23
2023-05-05T04:15:49.613Z,11.20
2023-05-05T04:16:49.565Z,11.19
2023-05-05T04:17:49.586Z,11.19
2023-05-05T04:18:49.588Z,11.20
2023-05-05T04:19:49.565Z,11.17
2023-05-05T04:20:49.528Z,11.17
2023-05-05T04:21:49.516Z,11.11
2023-05-05T04:22:51.413Z,11.09
2023-05-05T04:23:49.488Z,11.09
2023-05-05T04:24:50.511Z,11.11
2023-05-05T04:25:49.458Z,11.12
2023-05-05T04:26:49.464Z,11.17
2023-05-05T04:27:49.499Z,11.19
2023-05-05T04:28:49.445Z,11.23
2023-05-05T04:29:49.424Z,11.19
2023-05-05T04:30:49.418Z,11.17
2023-05-05T04:31:49.611Z,11.20
2023-05-05T04:32:49.448Z,11.23
2023-05-05T04:33:49.377Z,11.27
2023-05-05T04:34:49.366Z,11.28
2023-05-05T04:35:49.375Z,11.27
2023-05-05T04:36:49.395Z,11.28
2023-05-05T04:37:49.323Z,11.33
2023-05-05T04:38:49.352Z,11.35
2023-05-05T04:39:49.353Z,11.36
2023-05-05T04:40:49.321Z,11.39
2023-05-05T04:41:49.312Z,11.41
2023-05-05T04:42:49.290Z,11.35
2023-05-05T04:43:49.290Z,11.33
2023-05-05T04:44:49.260Z,11.31
2023-05-05T04:45:49.316Z,11.30
2023-05-05T04:46:49.299Z,11.31
2023-05-05T04:47:49.272Z,11.31
2023-05-05T04:48:49.292Z,11.35
2023-05-05T04:49:49.275Z,11.39
2023-05-05T04:50:49.215Z,11.44
2023-05-05T04:51:49.203Z,11.42
2023-05-05T04:52:50.782Z,11.41
2023-05-05T04:53:49.160Z,11.42
2023-05-05T04:54:49.227Z,11.39
2023-05-05T04:55:49.294Z,11.38
2023-05-05T04:56:49.148Z,11.39
2023-05-05T04:57:49.127Z,11.41
2023-05-05T04:58:49.134Z,11.45
2023-05-05T04:59:49.106Z,11.49
2023-05-05T05:00:49.107Z,11.51
2023-05-05T05:01:49.150Z,11.49
2023-05-05T05:02:49.153Z,11.49
2023-05-05T05:03:49.114Z,11.45
2023-05-05T05:04:49.071Z,11.48
2023-05-05T05:05:49.035Z,11.54
2023-05-05T05:06:49.035Z,11.49
2023-05-05T05:07:49.031Z,11.48
2023-05-05T05:08:48.998Z,11.53
2023-05-05T05:09:49.009Z,11.51
2023-05-05T05:10:48.977Z,11.54
2023-05-05T05:11:49.010Z,11.60
2023-05-05T05:12:49.012Z,11.66
2023-05-05T05:13:48.981Z,11.70
2023-05-05T05:14:48.958Z,11.67
2023-05-05T05:15:48.951Z,11.67
2023-05-05T05:16:48.984Z,11.69
2023-05-05T05:17:48.945Z,11.75
2023-05-05T05:18:48.902Z,11.81
2023-05-05T05:19:48.914Z,11.84
2023-05-05T05:20:48.869Z,11.85
2023-05-05T05:21:48.886Z,11.90
2023-05-05T05:22:48.865Z,11.96
2023-05-05T05:23:48.902Z,12.00
2023-05-05T05:24:48.832Z,12.04
2023-05-05T05:25:48.834Z,12.11
2023-05-05T05:26:48.814Z,12.13
2023-05-05T05:27:58.520Z,12.19
2023-05-05T05:28:48.829Z,12.25
2023-05-05T05:29:48.788Z,12.29
2023-05-05T05:30:48.770Z,12.31
2023-05-05T05:31:48.772Z,12.36
2023-05-05T05:32:48.792Z,12.36
2023-05-05T05:33:48.739Z,12.36
2023-05-05T05:34:48.728Z,12.34
2023-05-05T05:35:48.715Z,12.37
2023-05-05T05:36:48.703Z,12.41
2023-05-05T05:37:48.973Z,12.43
2023-05-05T05:38:48.685Z,12.38
2023-05-05T05:39:48.671Z,12.40
2023-05-05T05:40:48.653Z,12.37
2023-05-05T05:41:48.667Z,12.40
2023-05-05T05:42:48.657Z,12.46
2023-05-05T05:43:48.618Z,12.55
2023-05-05T05:44:48.637Z,12.56
2023-05-05T05:45:48.680Z,12.67
2023-05-05T05:46:48.617Z,12.63
2023-05-05T05:47:48.637Z,12.69
2023-05-05T05:48:48.606Z,12.74
2023-05-05T05:49:48.576Z,12.74
2023-05-05T05:50:48.555Z,12.76
2023-05-05T05:51:48.557Z,12.74
2023-05-05T05:52:48.550Z,12.80
2023-05-05T05:53:48.528Z,12.84
2023-05-05T05:54:48.532Z,12.84
2023-05-05T05:55:48.515Z,12.87
2023-05-05T05:56:48.554Z,12.89
2023-05-05T05:57:48.489Z,12.95
2023-05-05T05:58:48.506Z,12.91
2023-05-05T05:59:48.463Z,12.89
2023-05-05T06:00:48.454Z,12.80
2023-05-05T06:01:48.440Z,12.80
2023-05-05T06:02:48.550Z,12.80
2023-05-05T06:03:48.462Z,12.84
2023-05-05T06:04:48.411Z,12.87
2023-05-05T06:05:48.428Z,12.85
2023-05-05T06:06:48.405Z,12.91
2023-05-05T06:07:48.414Z,12.99
2023-05-05T06:08:48.350Z,13.03
2023-05-05T06:09:48.368Z,13.04
2023-05-05T06:10:48.360Z,13.14
2023-05-05T06:11:48.344Z,13.25
2023-05-05T06:12:48.352Z,13.39
2023-05-05T06:13:48.313Z,13.36
2023-05-05T06:14:48.311Z,13.32
2023-05-05T06:15:48.365Z,13.47
2023-05-05T06:16:55.035Z,13.57
2023-05-05T06:17:48.313Z,13.68
2023-05-05T06:18:48.247Z,13.62
2023-05-05T06:19:48.254Z,13.55
2023-05-05T06:20:48.309Z,13.48
2023-05-05T06:21:48.237Z,13.41
2023-05-05T06:22:48.221Z,13.43
2023-05-05T06:23:48.227Z,13.46
2023-05-05T06:24:48.198Z,13.47
2023-05-05T06:25:48.280Z,13.55
2023-05-05T06:26:48.166Z,13.57
2023-05-05T06:27:48.215Z,13.55
2023-05-05T06:28:48.152Z,13.53
2023-05-05T06:29:48.180Z,13.48
2023-05-05T06:30:48.151Z,13.46
2023-05-05T06:31:48.170Z,13.41
2023-05-05T06:32:48.149Z,13.44
2023-05-05T06:33:48.120Z,13.51
2023-05-05T06:34:48.096Z,13.54
2023-05-05T06:35:48.075Z,13.63
2023-05-05T06:36:48.206Z,13.69
2023-05-05T06:37:48.058Z,13.76
2023-05-05T06:38:48.056Z,13.83
2023-05-05T06:39:48.052Z,13.90
2023-05-05T06:40:48.033Z,13.98
2023-05-05T06:41:48.007Z,14.01
2023-05-05T06:42:48.016Z,14.04
2023-05-05T06:43:47.995Z,14.01
2023-05-05T06:44:47.974Z,14.08
2023-05-05T06:45:48.062Z,14.09
2023-05-05T06:46:48.021Z,14.12
2023-05-05T06:47:48.088Z,14.21
2023-05-05T06:48:47.937Z,14.13
2023-05-05T06:49:47.942Z,14.12
2023-05-05T06:50:47.911Z,14.12
2023-05-05T06:51:47.922Z,14.13
2023-05-05T06:52:48.057Z,14.24
2023-05-05T06:53:48.022Z,14.30
2023-05-05T06:54:47.891Z,14.27
2023-05-05T06:55:47.891Z,14.30
2023-05-05T06:56:47.865Z,14.38
2023-05-05T06:57:47.880Z,14.42
2023-05-05T06:58:47.839Z,14.41
2023-05-05T06:59:47.843Z,14.34
2023-05-05T07:00:47.840Z,14.27
2023-05-05T07:01:47.827Z,14.34
2023-05-05T07:02:47.851Z,14.42
2023-05-05T07:03:47.848Z,14.52
2023-05-05T07:04:47.777Z,14.63
2023-05-05T07:05:47.769Z,14.66
2023-05-05T07:06:47.797Z,14.80
2023-05-05T07:07:47.733Z,14.94
2023-05-05T07:08:47.727Z,15.09
2023-05-05T07:09:47.713Z,15.19
2023-05-05T07:10:47.818Z,15.23
2023-05-05T07:11:47.735Z,15.30
2023-05-05T07:12:47.701Z,15.38
2023-05-05T07:13:47.683Z,15.48
2023-05-05T07:14:47.668Z,15.44
2023-05-05T07:15:47.670Z,15.48
2023-05-05T07:16:47.638Z,15.44
2023-05-05T07:17:47.667Z,15.23
2023-05-05T07:18:47.646Z,15.05
2023-05-05T07:19:47.638Z,15.03
2023-05-05T07:20:47.622Z,15.04
2023-05-05T07:21:47.680Z,15.05
2023-05-05T07:22:47.580Z,15.13
2023-05-05T07:23:47.655Z,15.18
2023-05-05T07:24:48.623Z,15.25
2023-05-05T07:25:47.594Z,15.22
2023-05-05T07:26:47.538Z,15.23
2023-05-05T07:27:47.565Z,15.34
2023-05-05T07:28:47.548Z,15.40
2023-05-05T07:29:47.506Z,15.51
2023-05-05T07:30:47.578Z,15.56
2023-05-05T07:31:47.579Z,15.67
2023-05-05T07:32:47.509Z,15.71
2023-05-05T07:33:47.485Z,15.77
2023-05-05T07:34:47.545Z,15.78
2023-05-05T07:35:47.494Z,15.88
2023-05-05T07:36:47.446Z,16.01
2023-05-05T07:37:47.440Z,16.23
2023-05-05T07:38:47.414Z,16.45
2023-05-05T07:39:47.460Z,16.78
2023-05-05T07:40:47.388Z,17.22
2023-05-05T07:41:47.376Z,17.70
2023-05-05T07:42:47.576Z,18.25
2023-05-05T07:43:47.444Z,19.02
2023-05-05T07:44:47.447Z,19.94
2023-05-05T07:45:47.353Z,20.75
2023-05-05T07:46:47.331Z,21.53
2023-05-05T07:47:47.347Z,22.29
2023-05-05T07:48:47.376Z,23.01
2023-05-05T07:49:47.311Z,23.64
2023-05-05T07:50:47.305Z,24.00
2023-05-05T07:51:47.301Z,24.49
2023-05-05T07:52:51.804Z,24.89
2023-05-05T07:53:47.267Z,25.09
2023-05-05T07:54:47.259Z,25.16
2023-05-05T07:55:47.238Z,25.39
2023-05-05T07:56:47.219Z,25.85
2023-05-05T07:57:47.232Z,26.27
2023-05-05T07:58:47.195Z,26.44
2023-05-05T07:59:47.212Z,26.87
2023-05-05T08:00:47.170Z,27.18
2023-05-05T08:01:47.161Z,27.48
2023-05-05T08:02:47.305Z,27.33
2023-05-05T08:03:47.202Z,27.39
2023-05-05T08:04:47.178Z,27.66
2023-05-05T08:05:47.130Z,27.59
2023-05-05T08:06:47.124Z,27.65
2023-05-05T08:07:47.120Z,27.87
2023-05-05T08:08:47.102Z,28.11
2023-05-05T08:09:47.157Z,28.21
2023-05-05T08:10:47.068Z,28.35
2023-05-05T08:11:47.066Z,28.60
2023-05-05T08:12:47.082Z,28.69
2023-05-05T08:13:47.059Z,28.62
2023-05-05T08:14:47.043Z,28.73
2023-05-05T08:15:47.086Z,28.89
2023-05-05T08:16:47.009Z,28.95
2023-05-05T08:17:47.086Z,28.82
2023-05-05T08:18:46.977Z,29.07
2023-05-05T08:19:46.994Z,29.17
2023-05-05T08:20:46.960Z,29.41
2023-05-05T08:21:47.110Z,29.25
2023-05-05T08:22:47.000Z,29.33
2023-05-05T08:23:46.929Z,29.51
2023-05-05T08:24:46.930Z,29.41
2023-05-05T08:25:46.919Z,29.49
2023-05-05T08:26:46.944Z,29.58
2023-05-05T08:27:47.009Z,29.63
2023-05-05T08:28:46.870Z,29.69
2023-05-05T08:29:46.887Z,28.91
2023-05-05T08:30:46.863Z,28.76
2023-05-05T08:31:46.925Z,28.30
2023-05-05T08:32:46.935Z,27.90
2023-05-05T08:33:46.826Z,27.58
2023-05-05T08:34:46.822Z,27.43
2023-05-05T08:35:46.866Z,27.18
2023-05-05T08:36:46.800Z,27.02
2023-05-05T08:37:46.816Z,27.24
2023-05-05T08:38:46.804Z,27.39
2023-05-05T08:39:46.763Z,27.08
2023-05-05T08:40:46.761Z,27.02
2023-05-05T08:41:46.753Z,27.02
2023-05-05T08:42:46.770Z,26.72
2023-05-05T08:43:46.733Z,26.27
2023-05-05T08:44:46.731Z,25.72
2023-05-05T08:45:46.708Z,25.11
2023-05-05T08:46:46.730Z,24.90
2023-05-05T08:47:47.105Z,24.60
2023-05-05T08:48:46.681Z,24.44
2023-05-05T08:49:46.733Z,24.06
2023-05-05T08:50:46.674Z,23.92
2023-05-05T08:51:46.681Z,24.12
2023-05-05T08:52:48.091Z,24.02
2023-05-05T08:53:46.614Z,23.92
2023-05-05T08:54:46.605Z,23.89
2023-05-05T08:55:46.594Z,23.72
2023-05-05T08:56:46.595Z,23.56
2023-05-05T08:57:46.601Z,23.57
2023-05-05T08:58:46.556Z,23.52
2023-05-05T08:59:46.558Z,23.44
2023-05-05T09:00:46.639Z,23.19
2023-05-05T09:01:46.560Z,22.89
2023-05-05T09:02:46.699Z,22.57
2023-05-05T09:03:46.516Z,22.72
2023-05-05T09:04:46.505Z,22.84
2023-05-05T09:05:46.512Z,22.88
2023-05-05T09:06:46.481Z,23.04
2023-05-05T09:07:46.459Z,23.29
2023-05-05T09:08:46.466Z,23.32
2023-05-05T09:09:46.460Z,23.23
2023-05-05T09:10:46.438Z,23.12
2023-05-05T09:11:46.441Z,22.85
2023-05-05T09:12:46.448Z,22.52
2023-05-05T09:13:46.428Z,22.24
2023-05-05T09:14:46.398Z,22.06
2023-05-05T09:15:46.392Z,22.09
2023-05-05T09:16:46.418Z,21.99
2023-05-05T09:17:46.387Z,22.11
2023-05-05T09:18:46.402Z,22.14
2023-05-05T09:19:46.336Z,22.20
2023-05-05T09:20:46.334Z,22.59
2023-05-05T09:21:46.357Z,23.00
2023-05-05T09:22:46.349Z,23.32
2023-05-05T09:23:46.304Z,23.47
2023-05-05T09:24:46.352Z,23.74
2023-05-05T09:25:46.319Z,23.87
2023-05-05T09:26:46.272Z,23.74
2023-05-05T09:27:46.297Z,23.38
2023-05-05T09:28:46.241Z,23.38
2023-05-05T09:29:46.280Z,23.67
2023-05-05T09:30:46.253Z,23.63
2023-05-05T09:31:46.544Z,23.67
2023-05-05T09:32:46.240Z,23.82
2023-05-05T09:33:46.237Z,23.99
2023-05-05T09:34:46.181Z,24.04
2023-05-05T09:35:46.205Z,23.84
2023-05-05T09:36:46.183Z,23.93
2023-05-05T09:37:46.207Z,23.64
2023-05-05T09:38:46.209Z,23.97
2023-05-05T09:39:46.135Z,24.02
2023-05-05T09:40:46.130Z,24.30
2023-05-05T09:41:46.138Z,24.79
2023-05-05T09:42:46.126Z,24.87
2023-05-05T09:43:46.095Z,25.16
2023-05-05T09:44:46.093Z,25.54
2023-05-05T09:45:46.073Z,25.86
2023-05-05T09:46:46.154Z,26.00
2023-05-05T09:47:46.130Z,26.20
2023-05-05T09:48:46.104Z,25.82
2023-05-05T09:49:46.068Z,25.11
2023-05-05T09:50:46.018Z,24.75
2023-05-05T09:51:46.030Z,24.67
2023-05-05T09:52:46.706Z,24.51
2023-05-05T09:53:46.169Z,24.44
2023-05-05T09:54:46.025Z,24.16
2023-05-05T09:55:46.004Z,23.93
2023-05-05T09:56:45.973Z,23.82
2023-05-05T09:57:46.037Z,23.52
2023-05-05T09:58:45.948Z,22.99
2023-05-05T09:59:46.474Z,22.75
2023-05-05T10:00:45.959Z,22.70
2023-05-05T10:01:45.985Z,22.57
2023-05-05T10:02:45.904Z,22.48
2023-05-05T10:03:45.899Z,22.51
2023-05-05T10:04:45.937Z,22.41
2023-05-05T10:05:45.911Z,22.27
2023-05-05T10:06:45.906Z,22.33
2023-05-05T10:07:45.881Z,22.45
2023-05-05T10:08:45.831Z,22.59
2023-05-05T10:09:45.823Z,22.64
2023-05-05T10:10:45.829Z,22.52
2023-05-05T10:11:45.843Z,22.41
2023-05-05T10:12:45.814Z,22.19
2023-05-05T10:13:45.824Z,22.12
2023-05-05T10:14:45.788Z,22.08
2023-05-05T10:15:45.806Z,22.04
2023-05-05T10:16:45.917Z,22.01
2023-05-05T10:17:57.798Z,22.06
2023-05-05T10:18:45.734Z,22.09
2023-05-05T10:19:45.743Z,22.39
2023-05-05T10:20:45.842Z,22.63
2023-05-05T10:21:45.721Z,22.88
2023-05-05T10:22:45.723Z,22.91
2023-05-05T10:23:45.676Z,22.75
2023-05-05T10:24:45.668Z,22.69
2023-05-05T10:25:45.708Z,22.66
2023-05-05T10:26:45.715Z,22.61
2023-05-05T10:27:45.679Z,22.59
2023-05-05T10:28:45.634Z,22.38
2023-05-05T10:29:45.662Z,22.38
2023-05-05T10:30:45.650Z,22.41
2023-05-05T10:31:45.613Z,22.33
2023-05-05T10:32:59.874Z,22.35
2023-05-05T10:33:45.665Z,22.33
2023-05-05T10:34:45.578Z,22.59
2023-05-05T10:35:45.563Z,23.00
2023-05-05T10:36:45.539Z,23.32
2023-05-05T10:37:45.589Z,23.62
2023-05-05T10:38:45.532Z,23.90
2023-05-05T10:39:45.539Z,23.94
2023-05-05T10:40:45.521Z,23.87
2023-05-05T10:41:45.497Z,23.67
2023-05-05T10:42:45.514Z,23.50
2023-05-05T10:43:45.495Z,23.38
2023-05-05T10:44:45.497Z,23.16
2023-05-05T10:45:45.510Z,22.85
2023-05-05T10:46:45.573Z,23.01
2023-05-05T10:47:45.516Z,22.74
2023-05-05T10:48:45.460Z,22.61
2023-05-05T10:49:45.405Z,22.42
2023-05-05T10:50:45.447Z,22.38
2023-05-05T10:51:45.414Z,22.38
2023-05-05T10:52:45.427Z,22.23
2023-05-05T10:53:45.437Z,22.30
2023-05-05T10:54:45.376Z,22.42
2023-05-05T10:55:45.384Z,22.39
2023-05-05T10:56:45.345Z,22.69
2023-05-05T10:57:45.380Z,23.19
2023-05-05T10:58:59.244Z,23.49
2023-05-05T10:59:45.317Z,23.62
2023-05-05T11:00:45.320Z,23.49
2023-05-05T11:01:45.310Z,23.31
2023-05-05T11:02:45.302Z,23.25
2023-05-05T11:03:45.299Z,23.11
2023-05-05T11:04:45.304Z,23.00
2023-05-05T11:05:45.257Z,23.09
2023-05-05T11:06:45.283Z,23.47
2023-05-05T11:07:45.254Z,23.60
2023-05-05T11:08:45.212Z,23.77
2023-05-05T11:09:45.242Z,23.79
2023-05-05T11:10:45.250Z,23.59
2023-05-05T11:11:45.192Z,23.53
2023-05-05T11:12:45.191Z,23.54
2023-05-05T11:13:45.172Z,23.53
2023-05-05T11:14:45.244Z,23.59
2023-05-05T11:15:45.137Z,23.56
2023-05-05T11:16:45.212Z,23.45
2023-05-05T11:17:45.139Z,23.47
2023-05-05T11:18:45.116Z,23.50
2023-05-05T11:19:45.099Z,23.29
2023-05-05T11:20:45.124Z,23.06
2023-05-05T11:21:45.117Z,22.85
2023-05-05T11:22:45.091Z,22.78
2023-05-05T11:23:45.081Z,22.85
2023-05-05T11:24:45.053Z,23.07
2023-05-05T11:25:45.041Z,23.35
2023-05-05T11:26:45.059Z,23.14
2023-05-05T11:27:45.019Z,22.75
2023-05-05T11:28:45.016Z,22.89
2023-05-05T11:29:44.990Z,22.99
2023-05-05T11:30:45.043Z,23.09
2023-05-05T11:31:44.964Z,23.11
2023-05-05T11:32:45.051Z,23.19
2023-05-05T11:33:44.958Z,23.34
2023-05-05T11:34:44.966Z,23.32
2023-05-05T11:35:44.960Z,23.14
2023-05-05T11:36:44.946Z,23.18
2023-05-05T11:37:44.934Z,23.38
2023-05-05T11:38:44.907Z,23.64
2023-05-05T11:39:44.906Z,23.77
2023-05-05T11:40:44.927Z,23.69
2023-05-05T11:41:44.888Z,23.54
2023-05-05T11:42:44.858Z,23.34
2023-05-05T11:43:44.849Z,22.96
2023-05-05T11:44:44.918Z,22.96
2023-05-05T11:45:45.011Z,22.81
2023-05-05T11:46:44.927Z,22.51
2023-05-05T11:47:44.807Z,22.38
2023-05-05T11:48:44.824Z,22.24
2023-05-05T11:49:44.831Z,22.29
2023-05-05T11:50:44.774Z,22.35
2023-05-05T11:51:44.778Z,22.38
2023-05-05T11:52:44.753Z,22.63
2023-05-05T11:53:44.747Z,22.67
2023-05-05T11:54:44.774Z,22.61
2023-05-05T11:55:44.726Z,22.64
2023-05-05T11:56:44.713Z,22.74
2023-05-05T11:57:44.704Z,22.78
2023-05-05T11:58:44.731Z,22.88
2023-05-05T11:59:44.731Z,22.82
2023-05-05T12:00:44.695Z,22.56
2023-05-05T12:01:44.668Z,22.57
2023-05-05T12:02:44.731Z,22.75
2023-05-05T12:03:44.797Z,22.63
2023-05-05T12:04:44.684Z,22.72
2023-05-05T12:05:44.650Z,23.09
2023-05-05T12:06:44.617Z,23.25
2023-05-05T12:07:44.612Z,23.45
2023-05-05T12:08:44.592Z,23.23
2023-05-05T12:09:44.572Z,23.34
2023-05-05T12:10:44.618Z,23.50
2023-05-05T12:11:44.619Z,23.62
2023-05-05T12:12:44.575Z,23.54
2023-05-05T12:13:44.550Z,23.49
2023-05-05T12:14:44.556Z,23.53
2023-05-05T12:15:44.547Z,23.52
2023-05-05T12:16:44.555Z,23.67
2023-05-05T12:17:44.527Z,24.05
2023-05-05T12:18:44.501Z,24.46
2023-05-05T12:19:44.495Z,24.86
2023-05-05T12:20:44.514Z,24.98
2023-05-05T12:21:44.464Z,25.30
2023-05-05T12:22:44.504Z,25.36
2023-05-05T12:23:44.495Z,25.38
2023-05-05T12:24:44.428Z,25.53
2023-05-05T12:25:44.411Z,25.72
2023-05-05T12:26:44.441Z,25.90
2023-05-05T12:27:44.412Z,25.98
2023-05-05T12:28:44.407Z,25.98
2023-05-05T12:29:44.385Z,25.96
2023-05-05T12:30:44.448Z,25.94
2023-05-05T12:31:44.443Z,25.97
2023-05-05T12:32:44.530Z,26.08
2023-05-05T12:33:44.370Z,26.28
2023-05-05T12:34:44.321Z,26.61
2023-05-05T12:35:44.327Z,26.51
2023-05-05T12:36:44.317Z,26.73
2023-05-05T12:37:44.300Z,26.88
2023-05-05T12:38:44.291Z,26.73
2023-05-05T12:39:44.273Z,26.65
2023-05-05T12:40:44.262Z,26.73
2023-05-05T12:41:44.268Z,26.90
2023-05-05T12:42:45.778Z,27.30
2023-05-05T12:43:44.242Z,27.66
2023-05-05T12:44:44.232Z,27.95
2023-05-05T12:45:44.284Z,28.38
2023-05-05T12:46:44.230Z,28.60
2023-05-05T12:47:44.237Z,28.79
2023-05-05T12:48:47.259Z,28.92
2023-05-05T12:49:44.166Z,28.82
2023-05-05T12:50:44.152Z,28.83
2023-05-05T12:51:44.164Z,28.77
2023-05-05T12:52:44.158Z,28.45